createdAt,value
2019-02-16T00:03:28.069Z,18.60
2019-02-16T00:08:33.797Z,18.60
2019-02-16T00:13:39.510Z,18.60
2019-02-16T00:18:43.786Z,18.60
2019-02-16T00:23:48.061Z,18.60
2019-02-16T00:28:52.593Z,18.50
2019-02-16T00:33:57.137Z,18.50
2019-02-16T00:39:01.410Z,18.50
2019-02-16T00:44:05.798Z,18.50
2019-02-16T00:49:10.279Z,18.50
2019-02-16T00:54:15.352Z,18.50
2019-02-16T00:59:19.474Z,18.40
2019-02-16T01:04:23.974Z,18.40
2019-02-16T01:09:28.129Z,18.40
2019-02-16T01:14:32.443Z,18.40
2019-02-16T01:19:36.948Z,18.40
2019-02-16T01:24:41.206Z,18.40
2019-02-16T01:29:45.356Z,18.40
2019-02-16T01:34:49.655Z,18.40
2019-02-16T01:39:53.805Z,18.30
2019-02-16T01:44:58.178Z,18.30
2019-02-16T01:50:02.319Z,18.30
2019-02-16T01:55:08.992Z,18.30
2019-02-16T02:00:14.670Z,18.30
2019-02-16T02:05:20.506Z,18.30
2019-02-16T02:10:24.989Z,18.30
2019-02-16T02:15:29.745Z,18.20
2019-02-16T02:20:34.909Z,18.20
2019-02-16T02:25:39.313Z,18.20
2019-02-16T02:30:43.718Z,18.30
2019-02-16T02:35:48.065Z,18.20
2019-02-16T02:40:52.466Z,18.20
2019-02-16T02:45:56.713Z,18.20
2019-02-16T02:51:00.962Z,18.20
2019-02-16T02:56:05.432Z,18.20
2019-02-16T03:01:10.061Z,18.20
2019-02-16T03:06:15.810Z,18.10
2019-02-16T03:11:20.061Z,18.10
2019-02-16T03:16:26.227Z,18.10
2019-02-16T03:21:30.530Z,18.10
2019-02-16T03:27:07.617Z,18.10
2019-02-16T03:32:48.640Z,18.10
2019-02-16T03:38:22.939Z,18.00
2019-02-16T03:43:27.182Z,18.00
2019-02-16T03:48:31.452Z,18.00
2019-02-16T03:53:36.202Z,18.00
2019-02-16T03:58:40.476Z,18.00
2019-02-16T04:03:44.639Z,17.90
2019-02-16T04:08:48.910Z,18.00
2019-02-16T04:13:53.144Z,17.90
2019-02-16T04:18:57.254Z,17.90
2019-02-16T04:24:01.403Z,17.90
2019-02-16T04:29:07.114Z,17.90
2019-02-16T04:34:12.058Z,17.90
2019-02-16T04:39:17.803Z,17.90
2019-02-16T04:44:22.025Z,17.80
2019-02-16T04:49:26.248Z,17.80
2019-02-16T04:54:30.618Z,17.80
2019-02-16T04:59:35.573Z,17.80
2019-02-16T05:04:39.727Z,17.80
2019-02-16T05:09:44.285Z,17.80
2019-02-16T05:14:48.529Z,17.80
2019-02-16T05:19:52.698Z,17.80
2019-02-16T05:24:57.099Z,17.80
2019-02-16T05:30:01.849Z,17.70
2019-02-16T05:35:06.982Z,17.70
2019-02-16T05:40:12.750Z,17.70
2019-02-16T05:45:18.529Z,17.70
2019-02-16T05:50:22.774Z,17.70
2019-02-16T05:55:27.115Z,17.70
2019-02-16T06:00:31.751Z,17.70
2019-02-16T06:05:37.450Z,17.70
2019-02-16T06:10:41.902Z,17.70
2019-02-16T06:15:46.047Z,17.70
2019-02-16T06:20:50.489Z,17.70
2019-02-16T06:25:54.929Z,17.70
2019-02-16T06:30:59.078Z,17.70
2019-02-16T06:36:04.723Z,17.70
2019-02-16T06:41:09.266Z,17.70
2019-02-16T06:46:13.677Z,17.60
2019-02-16T06:51:18.126Z,17.60
2019-02-16T06:56:23.167Z,17.60
2019-02-16T07:01:28.030Z,17.60
2019-02-16T07:06:32.424Z,17.60
2019-02-16T07:11:36.945Z,17.70
2019-02-16T07:16:41.094Z,17.60
2019-02-16T07:21:45.338Z,17.60
2019-02-16T07:26:49.618Z,17.70
2019-02-16T07:31:53.955Z,17.70
2019-02-16T07:36:58.300Z,17.60
2019-02-16T07:42:02.597Z,17.70
2019-02-16T07:47:08.297Z,17.70
2019-02-16T07:52:12.449Z,17.60
2019-02-16T07:57:17.717Z,17.70
2019-02-16T08:02:21.976Z,17.70
2019-02-16T08:07:27.122Z,17.70
2019-02-16T08:12:31.386Z,17.70
2019-02-16T08:17:35.639Z,17.70
2019-02-16T08:22:39.791Z,17.70
2019-02-16T08:27:44.646Z,17.70
2019-02-16T08:32:49.297Z,17.70
2019-02-16T08:37:53.550Z,17.70
2019-02-16T08:42:59.331Z,17.70
2019-02-16T08:48:04.266Z,17.70
2019-02-16T08:53:09.959Z,17.70
2019-02-16T08:58:15.597Z,17.70
2019-02-16T09:03:19.750Z,17.80
2019-02-16T09:08:24.003Z,17.70
2019-02-16T09:13:28.160Z,17.70
2019-02-16T09:18:32.465Z,17.70
2019-02-16T09:23:37.562Z,17.80
2019-02-16T09:28:41.741Z,17.80
2019-02-16T09:33:46.823Z,17.80
2019-02-16T09:38:51.186Z,17.80
2019-02-16T09:43:55.702Z,17.80
2019-02-16T09:49:00.377Z,17.80
2019-02-16T09:54:08.431Z,17.80
2019-02-16T09:59:11.038Z,17.80
2019-02-16T10:04:16.805Z,17.80
2019-02-16T10:09:21.221Z,17.80
2019-02-16T10:14:26.090Z,17.80
2019-02-16T10:19:30.665Z,17.90
2019-02-16T10:24:34.942Z,17.90
2019-02-16T10:29:39.490Z,17.90
2019-02-16T10:34:43.887Z,17.90
2019-02-16T10:39:48.155Z,17.90
2019-02-16T10:44:52.450Z,17.90
2019-02-16T10:49:56.738Z,17.90
2019-02-16T10:55:01.409Z,17.90
2019-02-16T11:00:07.501Z,17.90
2019-02-16T11:05:13.174Z,18.00
2019-02-16T11:10:17.669Z,18.00
2019-02-16T11:15:21.984Z,18.00
2019-02-16T11:20:27.510Z,18.00
2019-02-16T11:25:31.698Z,18.00
2019-02-16T11:30:37.409Z,18.00
2019-02-16T11:35:41.599Z,18.10
2019-02-16T11:40:46.054Z,18.10
2019-02-16T11:45:50.274Z,18.10
2019-02-16T11:50:54.461Z,18.10
2019-02-16T11:55:58.639Z,18.10
2019-02-16T12:01:02.807Z,18.10
2019-02-16T12:06:08.546Z,18.10
2019-02-16T12:11:12.919Z,18.10
2019-02-16T12:16:17.926Z,18.10
2019-02-16T12:21:22.759Z,18.10
2019-02-16T12:26:27.905Z,18.10
2019-02-16T12:31:32.622Z,18.10
2019-02-16T12:36:37.731Z,18.10
2019-02-16T12:41:42.863Z,18.10
2019-02-16T12:46:47.874Z,18.10
2019-02-16T12:51:52.462Z,18.20
2019-02-16T12:56:56.736Z,18.20
2019-02-16T13:02:00.869Z,18.20
2019-02-16T13:07:05.282Z,18.20
2019-02-16T13:12:10.342Z,18.20
2019-02-16T13:17:16.153Z,18.20
2019-02-16T13:22:20.554Z,18.20
2019-02-16T13:27:24.981Z,18.30
2019-02-16T13:32:29.198Z,18.30
2019-02-16T13:37:33.751Z,18.30
2019-02-16T13:42:38.521Z,18.30
2019-02-16T13:47:42.715Z,18.30
2019-02-16T13:52:46.852Z,18.40
2019-02-16T13:57:51.174Z,18.40
2019-02-16T14:02:55.354Z,18.40
2019-02-16T14:07:59.650Z,18.40
2019-02-16T14:13:05.125Z,18.40
2019-02-16T14:18:09.711Z,18.50
2019-02-16T14:23:15.413Z,18.50
2019-02-16T14:28:19.791Z,18.50
2019-02-16T14:33:24.234Z,18.50
2019-02-16T14:38:28.776Z,18.50
2019-02-16T14:43:33.759Z,18.60
2019-02-16T14:48:38.478Z,18.60
2019-02-16T14:53:42.751Z,18.60
2019-02-16T14:58:47.049Z,18.60
2019-02-16T15:03:51.340Z,18.60
2019-02-16T15:08:55.619Z,18.60
2019-02-16T15:13:59.926Z,18.60
2019-02-16T15:19:04.598Z,18.70
2019-02-16T15:24:10.574Z,18.70
2019-02-16T15:29:15.542Z,18.70
2019-02-16T15:34:20.291Z,18.70
2019-02-16T15:39:25.408Z,18.70
2019-02-16T15:44:30.387Z,18.70
2019-02-16T15:49:35.025Z,18.70
2019-02-16T15:54:39.314Z,18.70
2019-02-16T15:59:43.646Z,18.70
2019-02-16T16:04:47.919Z,18.70
2019-02-16T16:09:52.371Z,18.70
2019-02-16T16:14:56.563Z,18.70
2019-02-16T16:20:00.742Z,18.70
2019-02-16T16:25:05.389Z,18.70
2019-02-16T16:30:10.010Z,18.70
2019-02-16T16:35:26.591Z,18.70
2019-02-16T16:40:32.071Z,18.70
2019-02-16T16:45:36.334Z,18.70
2019-02-16T16:50:41.974Z,18.60
2019-02-16T16:55:46.271Z,18.60
2019-02-16T17:00:50.566Z,18.60
2019-02-16T17:05:56.286Z,18.50
2019-02-16T17:11:00.478Z,18.50
2019-02-16T17:16:04.719Z,18.50
2019-02-16T17:21:09.066Z,18.50
2019-02-16T17:26:13.810Z,18.50
2019-02-16T17:31:18.138Z,18.50
2019-02-16T17:36:22.334Z,18.50
2019-02-16T17:41:27.654Z,18.40
2019-02-16T17:46:31.839Z,18.40
2019-02-16T17:51:37.154Z,18.40
2019-02-16T17:56:46.719Z,18.40
2019-02-16T18:01:48.065Z,18.30
2019-02-16T18:06:52.279Z,18.30
2019-02-16T18:11:57.377Z,18.30
2019-02-16T18:17:02.045Z,18.30
2019-02-16T18:22:06.288Z,18.30
2019-02-16T18:27:10.759Z,18.20
2019-02-16T18:32:16.566Z,18.20
2019-02-16T18:37:20.791Z,18.20
2019-02-16T18:42:26.615Z,18.20
2019-02-16T18:47:30.852Z,18.10
2019-02-16T18:52:35.615Z,18.10
2019-02-16T18:57:39.795Z,18.10
2019-02-16T19:02:44.354Z,18.10
2019-02-16T19:07:48.697Z,18.10
2019-02-16T19:12:53.043Z,18.00
2019-02-16T19:17:57.360Z,18.00
2019-02-16T19:23:01.565Z,18.00
2019-02-16T19:28:06.388Z,18.00
2019-02-16T19:33:10.970Z,18.00
2019-02-16T19:38:16.349Z,18.00
2019-02-16T19:43:20.547Z,17.90
2019-02-16T19:48:25.594Z,17.90
2019-02-16T19:53:29.834Z,17.90
2019-02-16T19:58:35.757Z,17.90
2019-02-16T20:03:39.952Z,17.90
2019-02-16T20:08:45.012Z,17.80
2019-02-16T20:13:49.383Z,17.80
2019-02-16T20:18:53.888Z,17.80
2019-02-16T20:23:58.219Z,17.80
2019-02-16T20:29:02.408Z,17.80
2019-02-16T20:34:06.575Z,17.80
2019-02-16T20:39:10.812Z,17.70
2019-02-16T20:44:16.323Z,17.70
2019-02-16T20:49:20.575Z,17.70
2019-02-16T20:54:25.648Z,17.70
2019-02-16T20:59:29.881Z,17.70
2019-02-16T21:04:35.183Z,17.60
2019-02-16T21:09:39.779Z,17.60
2019-02-16T21:14:44.528Z,17.60
2019-02-16T21:19:49.642Z,17.60
2019-02-16T21:24:55.470Z,17.60
2019-02-16T21:30:00.083Z,17.60
2019-02-16T21:35:05.914Z,17.50
2019-02-16T21:40:11.631Z,17.50
2019-02-16T21:45:17.411Z,17.50
2019-02-16T21:50:21.806Z,17.50
2019-02-16T21:55:26.656Z,17.50
2019-02-16T22:00:31.042Z,17.50
2019-02-16T22:05:36.837Z,17.50
2019-02-16T22:10:41.434Z,17.40
2019-02-16T22:15:46.866Z,17.40
2019-02-16T22:20:51.073Z,17.40
2019-02-16T22:25:55.966Z,17.40
2019-02-16T22:31:00.845Z,17.40
2019-02-16T22:36:06.710Z,17.40
2019-02-16T22:41:12.436Z,17.40
2019-02-16T22:46:17.729Z,17.40
2019-02-16T22:51:21.912Z,17.30
2019-02-16T22:56:26.544Z,17.30
2019-02-16T23:01:31.590Z,17.30
2019-02-16T23:06:36.872Z,17.30
2019-02-16T23:11:41.597Z,17.30
2019-02-16T23:16:46.296Z,17.30
2019-02-16T23:21:50.417Z,17.30
2019-02-16T23:26:54.720Z,17.30
2019-02-16T23:31:58.983Z,17.30
2019-02-16T23:37:03.412Z,17.30
2019-02-16T23:42:08.078Z,17.20
2019-02-16T23:47:12.827Z,17.20
2019-02-16T23:52:18.190Z,17.20
2019-02-16T23:57:22.584Z,17.20
